Time;durP1;ratioP1;P1;durP2;ratioP2;P2;SDS_P1;SDS_P2;PMS_P1;PMS_P2;Temp;Humidity;BMP_temperature;BMP_pressure;BME280_temperature;BME280_humidity;BME280_pressure;Samples;Min_cycle;Max_cycle;Signal;HPM_P1;HPM_P2
2022/07/26 00:00:43;;;;;;;;;;;;;;;14.16;44.72;95361.34;5018663;28;20025;-61
2022/07/26 00:03:08;;;;;;;;;;;;;;;14.26;44.49;95368.94;5011379;28;20181;-62
2022/07/26 00:05:36;;;;;;;;;;;;;;;13.47;46.52;95363.31;5004247;28;20059;-59
2022/07/26 00:08:10;;;;;;;;;;;;;;;13.33;46.87;95357.94;4993749;28;20496;-59
2022/07/26 00:10:36;;;;;;;;;;;;;;;13.15;48.07;95364.66;5008991;28;19980;-61
2022/07/26 00:13:01;;;;;;;;;;;;;;;13.17;48.14;95362.63;5011101;28;20002;-63
2022/07/26 00:15:27;;;;;;;;;;;;;;;13.05;48.21;95362.38;5010031;28;20352;-59
2022/07/26 00:17:52;;;;;;;;;;;;;;;12.76;48.94;95360.78;5020775;28;20454;-59
2022/07/26 00:20:17;;;;;;;;;;;;;;;12.98;48.41;95363.38;5012626;28;20005;-59
2022/07/26 00:22:42;;;;;;;;;;;;;;;12.76;48.98;95366.13;5013910;28;20379;-62
2022/07/26 00:25:08;;;;;;;;;;;;;;;12.67;49.58;95368.97;5018156;28;20021;-61
2022/07/26 00:27:36;;;;;;;;;;;;;;;12.08;51.26;95378.22;5018003;28;19978;-62
2022/07/26 00:30:03;;;;;;;;;;;;;;;12.59;49.76;95376.31;5014856;28;20340;-61
2022/07/26 00:32:28;;;;;;;;;;;;;;;12.54;49.93;95369.72;5015545;28;20200;-58
2022/07/26 00:34:53;;;;;;;;;;;;;;;12.52;50.42;95370.94;5017977;28;20075;-60
2022/07/26 00:37:19;;;;;;;;;;;;;;;12.38;50.32;95368.16;5019449;28;19993;-59
2022/07/26 00:39:44;;;;;;;;;;;;;;;12.71;49.63;95376.59;5019041;28;19981;-61
2022/07/26 00:42:09;;;;;;;;;;;;;;;12.79;49.42;95381.75;5017443;28;20005;-61
2022/07/26 00:44:38;;;;;;;;;;;;;;;12.65;49.57;95379.00;5020951;28;20105;-61
2022/07/26 00:47:03;;;;;;;;;;;;;;;12.71;49.79;95384.59;5017622;28;19981;-61
2022/07/26 00:49:29;;;;;;;;;;;;;;;12.65;49.52;95386.22;5018525;28;19996;-59
2022/07/26 00:51:54;;;;;;;;;;;;;;;13.26;48.03;95391.84;5013690;28;20060;-60
2022/07/26 00:54:19;;;;;;;;;;;;;;;13.31;47.99;95392.06;4998372;28;19986;-59
2022/07/26 00:56:44;;;;;;;;;;;;;;;13.65;47.24;95390.31;5010528;28;19994;-62
2022/07/26 00:59:09;;;;;;;;;;;;;;;13.33;48.06;95394.53;5014286;28;19978;-59
2022/07/26 01:01:35;;;;;;;;;;;;;;;13.82;46.55;95397.94;5012311;28;19993;-60
2022/07/26 01:04:00;;;;;;;;;;;;;;;13.62;47.20;95400.56;5021538;28;20443;-61
2022/07/26 01:06:25;;;;;;;;;;;;;;;13.58;47.04;95402.84;5016232;28;20342;-59
2022/07/26 01:08:50;;;;;;;;;;;;;;;13.58;47.34;95405.50;5016090;28;20084;-61
2022/07/26 01:11:16;;;;;;;;;;;;;;;13.64;47.30;95395.84;5016548;28;19969;-61
2022/07/26 01:13:44;;;;;;;;;;;;;;;13.67;46.90;95403.47;5011893;28;20040;-60
2022/07/26 01:16:10;;;;;;;;;;;;;;;13.76;46.23;95396.91;5010856;28;20004;-60
2022/07/26 01:18:35;;;;;;;;;;;;;;;13.63;46.79;95403.03;5007857;28;19977;-61
2022/07/26 01:21:00;;;;;;;;;;;;;;;13.75;46.30;95405.13;5013087;28;20042;-59
2022/07/26 01:23:25;;;;;;;;;;;;;;;13.86;46.00;95401.00;4999331;28;19966;-62
2022/07/26 01:25:50;;;;;;;;;;;;;;;14.02;45.49;95391.81;5013171;28;19993;-62
2022/07/26 01:28:16;;;;;;;;;;;;;;;14.18;45.02;95403.97;5005850;28;19988;-59
2022/07/26 01:30:41;;;;;;;;;;;;;;;14.24;44.65;95402.31;5014031;28;20262;-60
2022/07/26 01:33:06;;;;;;;;;;;;;;;14.35;44.42;95404.38;5008582;28;19987;-60
2022/07/26 01:35:31;;;;;;;;;;;;;;;14.23;44.84;95408.69;4989293;28;20076;-61
2022/07/26 01:37:57;;;;;;;;;;;;;;;14.10;45.09;95399.63;5005903;28;20032;-61
2022/07/26 01:40:22;;;;;;;;;;;;;;;14.12;45.13;95402.09;5007171;28;19999;-61
2022/07/26 01:42:47;;;;;;;;;;;;;;;14.08;45.09;95401.69;5012922;28;19978;-60
2022/07/26 01:45:12;;;;;;;;;;;;;;;14.01;45.16;95409.69;5012595;28;19991;-62
2022/07/26 01:47:38;;;;;;;;;;;;;;;13.85;45.86;95410.91;5015741;28;19984;-58
2022/07/26 01:50:03;;;;;;;;;;;;;;;13.66;46.34;95413.34;5012313;28;20063;-61
2022/07/26 01:52:29;;;;;;;;;;;;;;;13.51;46.65;95408.19;5012494;28;20338;-60
2022/07/26 01:54:54;;;;;;;;;;;;;;;13.49;46.95;95410.22;5017272;28;20044;-59
2022/07/26 01:57:19;;;;;;;;;;;;;;;13.40;47.21;95401.53;4999174;28;20005;-61
2022/07/26 01:59:44;;;;;;;;;;;;;;;13.21;47.67;95411.16;5017038;28;20000;-60
2022/07/26 02:02:09;;;;;;;;;;;;;;;13.49;47.39;95412.09;5022257;28;20035;-61
2022/07/26 02:07:18;;;;;;;;;;;;;;;13.85;46.75;95413.59;5009190;28;20042;-63
2022/07/26 02:09:44;;;;;;;;;;;;;;;14.03;46.20;95413.00;5015613;28;19982;-59
2022/07/26 02:12:09;;;;;;;;;;;;;;;14.24;46.09;95413.84;5019044;28;20364;-60
2022/07/26 02:14:34;;;;;;;;;;;;;;;14.54;45.24;95415.25;5011002;28;20012;-60
2022/07/26 02:17:00;;;;;;;;;;;;;;;14.69;44.61;95409.69;5013159;28;20003;-61
2022/07/26 02:19:26;;;;;;;;;;;;;;;14.84;44.77;95412.97;5018300;28;19969;-58
2022/07/26 02:21:51;;;;;;;;;;;;;;;14.90;44.42;95411.31;5013611;28;20426;-59
2022/07/26 02:24:16;;;;;;;;;;;;;;;14.95;44.14;95411.50;5009285;28;19988;-63
2022/07/26 02:26:42;;;;;;;;;;;;;;;15.09;44.06;95420.31;5009719;28;20444;-61
2022/07/26 02:29:07;;;;;;;;;;;;;;;15.16;43.50;95427.50;5020246;28;20421;-60
2022/07/26 02:31:32;;;;;;;;;;;;;;;15.36;43.43;95412.16;5008388;28;19972;-60
2022/07/26 02:33:57;;;;;;;;;;;;;;;15.50;42.95;95409.38;5008836;28;20016;-62
2022/07/26 02:36:22;;;;;;;;;;;;;;;15.63;42.86;95413.09;5005968;28;20001;-62
2022/07/26 02:38:48;;;;;;;;;;;;;;;15.76;42.71;95415.69;5005940;28;19973;-60
2022/07/26 02:41:13;;;;;;;;;;;;;;;15.90;42.27;95421.78;5009077;28;20059;-61
2022/07/26 02:43:38;;;;;;;;;;;;;;;15.89;42.04;95425.50;5009348;28;19970;-60
2022/07/26 02:46:03;;;;;;;;;;;;;;;15.74;42.36;95428.50;5006574;28;20092;-62
2022/07/26 02:48:29;;;;;;;;;;;;;;;15.79;42.33;95426.00;5004424;28;20084;-60
2022/07/26 02:50:54;;;;;;;;;;;;;;;15.65;42.51;95429.78;5014636;28;19967;-63
2022/07/26 02:53:19;;;;;;;;;;;;;;;15.79;42.90;95427.84;5009481;28;19992;-62
2022/07/26 02:55:45;;;;;;;;;;;;;;;15.95;42.51;95421.94;5007934;28;20256;-59
2022/07/26 02:58:10;;;;;;;;;;;;;;;16.03;42.71;95436.16;5014485;28;19974;-59
2022/07/26 03:00:35;;;;;;;;;;;;;;;16.20;42.03;95436.44;5014857;28;19990;-59
2022/07/26 03:03:00;;;;;;;;;;;;;;;16.12;42.17;95432.97;5019740;28;19985;-62
2022/07/26 03:05:26;;;;;;;;;;;;;;;16.25;41.65;95437.44;5012521;28;19987;-61
2022/07/26 03:07:51;;;;;;;;;;;;;;;16.38;41.58;95441.91;5014875;28;20021;-60
2022/07/26 03:10:16;;;;;;;;;;;;;;;16.33;41.56;95446.25;5011712;28;19997;-59
2022/07/26 03:12:42;;;;;;;;;;;;;;;16.51;41.48;95442.84;5010964;28;19995;-60
2022/07/26 03:15:08;;;;;;;;;;;;;;;16.64;41.09;95445.41;5015294;28;20462;-59
2022/07/26 03:17:33;;;;;;;;;;;;;;;16.66;41.00;95441.69;5013181;28;19996;-60
2022/07/26 03:19:58;;;;;;;;;;;;;;;16.63;41.20;95453.69;5013118;28;19987;-61
2022/07/26 03:22:24;;;;;;;;;;;;;;;16.61;40.77;95453.91;5014402;28;19976;-59
2022/07/26 03:24:49;;;;;;;;;;;;;;;16.45;41.07;95452.59;5012730;28;20470;-62
2022/07/26 03:27:14;;;;;;;;;;;;;;;16.29;41.64;95458.47;5017445;28;20395;-60
2022/07/26 03:29:39;;;;;;;;;;;;;;;16.35;41.65;95454.97;5013691;28;20004;-60
2022/07/26 03:32:05;;;;;;;;;;;;;;;16.46;41.38;95456.91;5011781;28;19985;-60
2022/07/26 03:34:30;;;;;;;;;;;;;;;16.40;41.89;95457.81;5014901;28;20000;-59
2022/07/26 03:36:55;;;;;;;;;;;;;;;16.23;42.20;95458.31;5008539;28;19993;-60
2022/07/26 03:39:21;;;;;;;;;;;;;;;16.17;42.37;95461.88;5012909;28;20465;-61
2022/07/26 03:41:46;;;;;;;;;;;;;;;16.19;42.07;95464.34;5011118;28;20068;-58
2022/07/26 03:44:11;;;;;;;;;;;;;;;16.12;42.54;95459.03;5015750;28;20083;-59
2022/07/26 03:46:36;;;;;;;;;;;;;;;16.13;42.58;95463.34;5018815;28;20334;-61
2022/07/26 03:49:01;;;;;;;;;;;;;;;15.84;42.99;95460.25;5019944;28;20338;-60
2022/07/26 03:51:27;;;;;;;;;;;;;;;15.99;42.76;95462.63;5021239;28;19969;-60
2022/07/26 03:53:52;;;;;;;;;;;;;;;15.94;43.36;95465.94;5015521;28;20046;-60
2022/07/26 03:56:32;;;;;;;;;;;;;;;15.63;43.88;95456.81;5015243;28;20401;-61
2022/07/26 03:58:59;;;;;;;;;;;;;;;15.46;44.24;95462.66;5015347;28;20384;-60
2022/07/26 04:01:24;;;;;;;;;;;;;;;15.02;45.40;95464.28;5017991;28;20095;-60
2022/07/26 04:03:49;;;;;;;;;;;;;;;14.93;45.43;95464.47;5015720;28;20073;-60
2022/07/26 04:06:15;;;;;;;;;;;;;;;14.66;46.29;95459.16;5017776;28;20085;-62
2022/07/26 04:08:40;;;;;;;;;;;;;;;14.43;47.13;95464.91;5018356;28;19985;-60
2022/07/26 04:11:05;;;;;;;;;;;;;;;14.59;46.65;95458.31;5017465;28;19970;-60
2022/07/26 04:13:30;;;;;;;;;;;;;;;14.41;47.44;95462.44;5016308;28;20003;-62
2022/07/26 04:15:56;;;;;;;;;;;;;;;14.57;46.81;95455.84;5017037;28;20488;-60
2022/07/26 04:18:21;;;;;;;;;;;;;;;14.41;47.61;95457.09;5015509;28;19978;-60
2022/07/26 04:20:46;;;;;;;;;;;;;;;14.59;46.84;95461.00;5014208;28;19993;-61
2022/07/26 04:23:12;;;;;;;;;;;;;;;14.76;46.85;95460.59;5010671;28;20008;-60
2022/07/26 04:25:37;;;;;;;;;;;;;;;14.92;46.40;95462.03;5007424;28;19990;-60
2022/07/26 04:28:02;;;;;;;;;;;;;;;14.80;46.54;95459.16;5010418;28;19993;-60
2022/07/26 04:30:27;;;;;;;;;;;;;;;15.10;45.83;95461.34;5011598;28;20131;-61
2022/07/26 04:32:53;;;;;;;;;;;;;;;15.23;45.53;95460.50;5014412;28;19990;-61
2022/07/26 04:35:18;;;;;;;;;;;;;;;15.23;45.35;95463.97;5011988;28;19982;-60
2022/07/26 04:37:43;;;;;;;;;;;;;;;14.77;46.47;95468.44;5019706;28;20016;-60
2022/07/26 04:40:09;;;;;;;;;;;;;;;15.32;45.47;95467.25;5014811;28;20386;-59
2022/07/26 04:42:35;;;;;;;;;;;;;;;15.57;45.00;95471.13;5010992;28;19973;-62
2022/07/26 04:45:00;;;;;;;;;;;;;;;15.34;45.14;95475.09;5013213;28;20040;-60
2022/07/26 04:47:25;;;;;;;;;;;;;;;15.36;45.50;95465.78;5018975;28;19984;-61
2022/07/26 04:49:51;;;;;;;;;;;;;;;15.28;45.75;95465.19;5018776;28;20557;-60
2022/07/26 04:52:16;;;;;;;;;;;;;;;15.58;44.92;95470.06;5017014;28;20016;-59
2022/07/26 04:54:41;;;;;;;;;;;;;;;15.39;45.54;95479.78;5017216;28;20028;-60
2022/07/26 04:57:06;;;;;;;;;;;;;;;15.58;44.78;95465.53;5010081;28;19990;-62
2022/07/26 04:59:32;;;;;;;;;;;;;;;15.58;44.72;95470.91;5013795;28;19972;-62
2022/07/26 05:01:57;;;;;;;;;;;;;;;15.83;44.53;95472.00;5019901;28;20445;-60
2022/07/26 05:04:22;;;;;;;;;;;;;;;15.67;44.38;95474.13;5017002;28;19994;-60
2022/07/26 05:06:47;;;;;;;;;;;;;;;15.93;44.06;95466.16;5015485;28;20432;-61
2022/07/26 05:09:13;;;;;;;;;;;;;;;16.09;43.52;95480.94;5013057;28;20001;-59
2022/07/26 05:11:38;;;;;;;;;;;;;;;14.74;46.04;95476.03;5013379;28;19973;-60
2022/07/26 05:14:03;;;;;;;;;;;;;;;14.71;46.93;95474.56;5008533;28;20000;-60
2022/07/26 05:16:28;;;;;;;;;;;;;;;15.61;44.70;95475.81;5015655;28;20522;-60
2022/07/26 05:18:54;;;;;;;;;;;;;;;15.59;44.29;95483.28;5015557;28;20063;-59
2022/07/26 05:21:19;;;;;;;;;;;;;;;15.66;44.16;95480.56;5019383;28;20001;-60
2022/07/26 05:23:44;;;;;;;;;;;;;;;15.70;44.08;95465.66;5014174;28;20065;-60
2022/07/26 05:26:10;;;;;;;;;;;;;;;15.72;44.20;95462.78;5014534;28;20007;-62
2022/07/26 05:28:37;;;;;;;;;;;;;;;15.52;44.51;95465.50;5010973;28;20405;-60
2022/07/26 05:31:02;;;;;;;;;;;;;;;14.72;46.17;95469.00;5016057;28;20030;-60
2022/07/26 05:33:27;;;;;;;;;;;;;;;15.66;44.89;95461.78;5013946;28;19993;-60
2022/07/26 05:35:52;;;;;;;;;;;;;;;15.77;44.21;95460.25;5016529;28;19992;-60
2022/07/26 05:38:18;;;;;;;;;;;;;;;16.06;43.76;95468.78;5010275;28;19997;-61
2022/07/26 05:40:43;;;;;;;;;;;;;;;15.66;44.46;95463.63;5015520;28;20528;-60
2022/07/26 05:43:08;;;;;;;;;;;;;;;15.01;46.02;95462.59;5015891;28;20076;-59
2022/07/26 05:45:33;;;;;;;;;;;;;;;14.56;48.08;95464.09;5011932;28;20353;-61
2022/07/26 05:47:59;;;;;;;;;;;;;;;13.71;49.32;95482.31;5013921;28;19976;-62
2022/07/26 05:50:24;;;;;;;;;;;;;;;14.09;49.17;95483.63;5014749;28;20020;-60
2022/07/26 05:52:49;;;;;;;;;;;;;;;13.85;49.76;95485.84;5011712;28;20001;-59
2022/07/26 05:55:14;;;;;;;;;;;;;;;13.25;50.92;95471.22;5010333;28;20619;-61
2022/07/26 05:57:46;;;;;;;;;;;;;;;13.71;49.54;95468.94;5011705;28;20018;-60
2022/07/26 06:00:11;;;;;;;;;;;;;;;13.43;50.42;95475.22;5014484;28;20000;-59
2022/07/26 06:02:37;;;;;;;;;;;;;;;12.90;51.88;95479.22;5014358;28;19978;-60
2022/07/26 06:05:02;;;;;;;;;;;;;;;12.72;53.03;95477.06;5007588;28;19989;-62
2022/07/26 06:07:27;;;;;;;;;;;;;;;12.98;52.09;95475.59;5012898;28;20366;-59
2022/07/26 06:09:52;;;;;;;;;;;;;;;13.33;51.62;95472.06;5008725;28;20249;-61
2022/07/26 06:12:18;;;;;;;;;;;;;;;13.05;52.52;95466.59;4990900;28;20036;-60
2022/07/26 06:14:43;;;;;;;;;;;;;;;13.50;51.96;95476.03;5013601;28;20033;-60
2022/07/26 06:17:08;;;;;;;;;;;;;;;13.60;52.06;95478.34;5016442;28;20015;-59
2022/07/26 06:19:33;;;;;;;;;;;;;;;12.26;55.08;95489.84;5010704;28;20330;-61
2022/07/26 06:21:59;;;;;;;;;;;;;;;12.21;56.02;95486.94;5011340;28;20276;-60
2022/07/26 06:24:24;;;;;;;;;;;;;;;12.01;56.18;95487.53;5009075;28;20432;-60
2022/07/26 06:26:51;;;;;;;;;;;;;;;12.27;55.17;95495.00;5006905;28;19976;-61
2022/07/26 06:29:17;;;;;;;;;;;;;;;12.83;54.42;95495.22;5011564;28;20000;-59
2022/07/26 06:31:42;;;;;;;;;;;;;;;12.18;56.28;95504.16;5012395;28;20409;-59
2022/07/26 06:34:08;;;;;;;;;;;;;;;12.12;55.95;95504.91;5007276;28;20590;-62
2022/07/26 06:36:33;;;;;;;;;;;;;;;11.86;56.99;95509.75;5014010;28;19993;-61
2022/07/26 06:38:58;;;;;;;;;;;;;;;12.84;54.37;95496.84;5006606;28;19977;-60
2022/07/26 06:41:23;;;;;;;;;;;;;;;12.58;55.20;95503.66;5009961;28;20469;-59
2022/07/26 06:43:48;;;;;;;;;;;;;;;13.29;53.49;95503.72;5011666;28;20373;-60
2022/07/26 06:46:15;;;;;;;;;;;;;;;12.87;54.03;95511.66;5011411;28;20185;-60
2022/07/26 06:48:56;;;;;;;;;;;;;;;12.82;54.90;95512.28;4975903;28;21226;-59
2022/07/26 06:51:22;;;;;;;;;;;;;;;13.59;52.64;95516.00;5011580;28;19990;-61
2022/07/26 06:53:47;;;;;;;;;;;;;;;13.68;51.78;95509.44;5011243;28;20060;-59
2022/07/26 06:56:13;;;;;;;;;;;;;;;13.34;52.84;95516.50;5006813;28;20093;-61
2022/07/26 06:58:39;;;;;;;;;;;;;;;13.24;53.32;95512.34;5008753;28;19980;-61
2022/07/26 07:01:04;;;;;;;;;;;;;;;13.97;51.57;95509.34;5004773;28;19997;-62
2022/07/26 07:03:30;;;;;;;;;;;;;;;13.91;52.25;95514.47;5008455;28;19969;-60
2022/07/26 07:05:55;;;;;;;;;;;;;;;14.35;50.31;95527.56;5007629;28;19997;-60
2022/07/26 07:08:21;;;;;;;;;;;;;;;14.05;51.15;95522.56;5010203;28;20275;-60
2022/07/26 07:10:47;;;;;;;;;;;;;;;13.71;52.31;95519.75;5014172;28;19992;-60
2022/07/26 07:13:12;;;;;;;;;;;;;;;13.76;52.42;95524.47;5005241;28;20033;-61
2022/07/26 07:15:37;;;;;;;;;;;;;;;13.67;53.07;95519.31;5006086;28;20505;-59
2022/07/26 07:18:03;;;;;;;;;;;;;;;13.47;52.87;95526.44;5015389;28;19989;-60
2022/07/26 07:20:28;;;;;;;;;;;;;;;13.59;53.10;95524.03;5013496;28;20000;-60
2022/07/26 07:22:53;;;;;;;;;;;;;;;13.81;52.86;95528.19;5008959;28;19974;-59
2022/07/26 07:25:18;;;;;;;;;;;;;;;13.84;52.79;95529.69;5007452;28;20016;-61
2022/07/26 07:27:44;;;;;;;;;;;;;;;13.77;52.32;95532.31;5004034;28;20037;-58
2022/07/26 07:30:09;;;;;;;;;;;;;;;13.59;53.13;95532.84;5004688;28;20644;-59
2022/07/26 07:32:35;;;;;;;;;;;;;;;13.83;52.56;95531.53;5010068;28;20224;-60
2022/07/26 07:35:00;;;;;;;;;;;;;;;14.13;51.75;95538.41;5012240;28;19986;-61
2022/07/26 07:37:25;;;;;;;;;;;;;;;13.74;52.48;95537.25;5009229;28;20290;-61
2022/07/26 07:39:51;;;;;;;;;;;;;;;13.36;53.39;95533.19;5010430;28;19973;-62
2022/07/26 07:42:16;;;;;;;;;;;;;;;12.92;54.51;95541.31;5004381;28;20051;-58
2022/07/26 07:44:41;;;;;;;;;;;;;;;13.68;52.88;95552.25;5005045;28;20410;-60
2022/07/26 07:47:10;;;;;;;;;;;;;;;12.85;55.29;95540.44;5004605;28;20270;-59
2022/07/26 07:49:35;;;;;;;;;;;;;;;12.84;55.42;95536.09;4992451;28;19988;-60
2022/07/26 07:52:00;;;;;;;;;;;;;;;13.87;53.23;95531.94;5009418;28;20434;-64
2022/07/26 07:54:25;;;;;;;;;;;;;;;13.87;52.51;95531.94;5007126;28;20011;-62
2022/07/26 07:56:51;;;;;;;;;;;;;;;13.78;52.74;95522.44;5005724;28;20005;-63
2022/07/26 07:59:17;;;;;;;;;;;;;;;14.97;50.46;95519.34;5012953;28;20430;-64
2022/07/26 08:01:42;;;;;;;;;;;;;;;15.53;48.48;95515.47;5006628;28;19997;-64
2022/07/26 08:04:08;;;;;;;;;;;;;;;16.00;47.22;95512.59;5008549;28;19985;-64
2022/07/26 08:06:33;;;;;;;;;;;;;;;15.50;47.79;95522.06;5010644;28;20162;-63
2022/07/26 08:08:58;;;;;;;;;;;;;;;15.53;48.12;95520.84;5002943;28;19993;-64
2022/07/26 08:11:23;;;;;;;;;;;;;;;15.33;49.01;95525.22;5004051;28;19969;-66
2022/07/26 08:13:49;;;;;;;;;;;;;;;15.28;48.31;95524.19;5003382;28;20127;-64
2022/07/26 08:16:14;;;;;;;;;;;;;;;15.32;48.94;95528.09;5005443;28;20323;-64
2022/07/26 08:18:39;;;;;;;;;;;;;;;14.95;49.18;95529.41;5004438;28;20025;-64
2022/07/26 08:21:04;;;;;;;;;;;;;;;15.03;48.82;95532.91;5007241;28;20033;-65
2022/07/26 08:23:30;;;;;;;;;;;;;;;15.34;49.11;95534.09;5006936;28;19978;-64
2022/07/26 08:25:57;;;;;;;;;;;;;;;15.20;49.58;95533.31;5006124;28;20025;-64
2022/07/26 08:28:22;;;;;;;;;;;;;;;14.33;50.63;95545.66;5018356;28;19993;-62
2022/07/26 08:30:47;;;;;;;;;;;;;;;14.28;50.94;95553.50;5008250;28;19981;-65
2022/07/26 08:33:13;;;;;;;;;;;;;;;14.83;50.00;95550.66;5007608;28;20002;-65
2022/07/26 08:35:38;;;;;;;;;;;;;;;15.21;49.42;95549.19;5001160;28;20001;-64
2022/07/26 08:38:03;;;;;;;;;;;;;;;14.68;50.19;95547.31;5006549;28;20131;-62
2022/07/26 08:40:28;;;;;;;;;;;;;;;14.63;51.03;95550.66;5008062;28;20648;-65
2022/07/26 08:42:54;;;;;;;;;;;;;;;14.64;50.73;95568.34;5010448;28;20443;-63
2022/07/26 08:45:20;;;;;;;;;;;;;;;14.97;50.20;95550.66;5016535;28;20241;-65
2022/07/26 08:47:45;;;;;;;;;;;;;;;15.60;49.15;95552.00;5006307;28;20063;-64
2022/07/26 08:50:10;;;;;;;;;;;;;;;15.54;48.66;95560.03;5007585;28;20450;-65
2022/07/26 08:52:39;;;;;;;;;;;;;;;14.70;50.43;95564.88;5007069;28;20071;-64
2022/07/26 08:55:04;;;;;;;;;;;;;;;14.46;51.15;95566.28;5009752;28;20015;-65
2022/07/26 08:57:30;;;;;;;;;;;;;;;14.10;52.44;95578.16;5015227;28;20460;-63
2022/07/26 09:00:14;;;;;;;;;;;;;;;13.81;52.93;95580.91;5021517;28;19970;-64
2022/07/26 09:02:40;;;;;;;;;;;;;;;13.92;52.87;95584.88;5018064;28;20028;-63
2022/07/26 09:05:05;;;;;;;;;;;;;;;14.05;52.47;95581.44;5013925;28;20004;-64
2022/07/26 09:07:31;;;;;;;;;;;;;;;14.78;51.00;95581.78;5010272;28;20350;-65
2022/07/26 09:09:57;;;;;;;;;;;;;;;14.94;50.37;95578.72;4989493;28;20041;-63
2022/07/26 09:12:22;;;;;;;;;;;;;;;15.21;50.04;95577.84;5009970;28;20457;-64
2022/07/26 09:14:48;;;;;;;;;;;;;;;15.30;49.79;95583.81;5009154;28;20001;-65
2022/07/26 09:17:13;;;;;;;;;;;;;;;14.65;50.75;95587.94;5016906;28;20001;-63
2022/07/26 09:19:39;;;;;;;;;;;;;;;14.98;49.87;95585.31;5006792;28;19966;-64
2022/07/26 09:22:08;;;;;;;;;;;;;;;15.18;49.29;95597.88;5005267;28;20431;-65
2022/07/26 09:24:34;;;;;;;;;;;;;;;15.39;49.42;95585.25;5005876;28;20005;-63
2022/07/26 09:26:59;;;;;;;;;;;;;;;15.64;48.74;95581.94;4988899;28;20008;-65
2022/07/26 09:29:25;;;;;;;;;;;;;;;16.35;46.63;95589.28;5013382;28;19988;-65
2022/07/26 09:31:50;;;;;;;;;;;;;;;15.44;48.28;95588.09;5006539;28;20549;-64
2022/07/26 09:34:24;;;;;;;;;;;;;;;15.83;48.18;95590.09;5007054;28;20000;-64
2022/07/26 09:36:50;;;;;;;;;;;;;;;16.24;47.31;95594.25;5007581;28;20000;-65
2022/07/26 09:39:15;;;;;;;;;;;;;;;16.43;47.46;95598.94;5006720;28;19974;-65
2022/07/26 09:41:40;;;;;;;;;;;;;;;17.00;45.38;95590.88;5009988;28;20321;-64
2022/07/26 09:44:18;;;;;;;;;;;;;;;17.53;44.61;95593.31;5015298;28;20000;-65
2022/07/26 09:46:53;;;;;;;;;;;;;;;17.89;43.39;95589.00;4987814;28;19967;-64
2022/07/26 09:49:18;;;;;;;;;;;;;;;16.57;44.72;95587.06;4987690;28;20075;-64
2022/07/26 09:51:50;;;;;;;;;;;;;;;17.15;44.15;95601.34;4998094;28;19969;-63
2022/07/26 09:54:29;;;;;;;;;;;;;;;17.37;43.90;95589.34;5008541;28;20060;-64
2022/07/26 09:56:54;;;;;;;;;;;;;;;17.24;44.33;95604.53;5011424;28;19997;-65
2022/07/26 09:59:20;;;;;;;;;;;;;;;16.62;46.14;95607.91;5008013;28;19980;-63
2022/07/26 10:01:45;;;;;;;;;;;;;;;16.65;46.07;95612.84;5012549;28;20041;-65
2022/07/26 10:04:10;;;;;;;;;;;;;;;16.82;45.13;95613.13;5005101;28;20221;-64
2022/07/26 10:06:36;;;;;;;;;;;;;;;16.93;45.69;95614.28;5014156;28;20493;-64
2022/07/26 10:09:01;;;;;;;;;;;;;;;17.31;44.80;95611.75;5006778;28;20620;-64
2022/07/26 10:11:27;;;;;;;;;;;;;;;17.32;44.18;95605.31;5005244;28;20499;-65
2022/07/26 10:13:53;;;;;;;;;;;;;;;17.21;43.90;95606.88;4997893;28;20294;-63
2022/07/26 10:16:31;;;;;;;;;;;;;;;17.60;42.95;95601.31;4990564;28;20319;-63
2022/07/26 10:18:57;;;;;;;;;;;;;;;17.76;43.10;95606.09;5007722;28;20483;-64
2022/07/26 10:21:26;;;;;;;;;;;;;;;16.86;44.37;95605.47;5005955;28;20024;-63
2022/07/26 10:23:55;;;;;;;;;;;;;;;16.60;44.10;95612.69;5009357;28;20896;-64
2022/07/26 10:26:33;;;;;;;;;;;;;;;16.52;44.12;95611.88;5006914;28;20454;-65
2022/07/26 10:29:08;;;;;;;;;;;;;;;16.70;44.99;95607.66;5007170;28;20497;-64
2022/07/26 10:31:33;;;;;;;;;;;;;;;17.06;43.50;95612.56;5016480;28;19986;-64
2022/07/26 10:33:58;;;;;;;;;;;;;;;17.21;43.67;95610.38;5014478;28;20360;-63
2022/07/26 10:36:28;;;;;;;;;;;;;;;17.33;42.97;95618.53;5011068;28;20260;-64
2022/07/26 10:38:57;;;;;;;;;;;;;;;17.88;41.06;95608.88;5005082;28;20340;-64
2022/07/26 10:41:32;;;;;;;;;;;;;;;18.60;39.61;95609.25;5005237;28;20017;-63
2022/07/26 10:44:09;;;;;;;;;;;;;;;18.92;39.71;95610.84;5004882;28;20063;-64
2022/07/26 10:46:34;;;;;;;;;;;;;;;18.40;40.52;95621.13;5007007;28;20407;-65
2022/07/26 10:49:03;;;;;;;;;;;;;;;18.50;39.82;95611.63;5009100;28;20077;-62
2022/07/26 10:51:32;;;;;;;;;;;;;;;18.78;38.90;95612.91;5008129;28;19971;-64
2022/07/26 10:53:58;;;;;;;;;;;;;;;18.46;39.43;95619.34;5007638;28;20486;-63
2022/07/26 10:56:23;;;;;;;;;;;;;;;17.90;40.15;95614.06;5016527;28;20013;-63
2022/07/26 10:58:48;;;;;;;;;;;;;;;17.21;42.57;95629.22;5010398;28;19996;-65
2022/07/26 11:01:13;;;;;;;;;;;;;;;17.05;42.74;95635.94;5005322;28;20102;-64
2022/07/26 11:03:39;;;;;;;;;;;;;;;16.17;44.59;95640.97;5006986;28;19977;-66
2022/07/26 11:06:15;;;;;;;;;;;;;;;16.22;43.87;95633.91;5005579;28;19998;-65
2022/07/26 11:08:41;;;;;;;;;;;;;;;15.91;45.45;95638.16;5004209;28;20023;-65
2022/07/26 11:11:06;;;;;;;;;;;;;;;16.16;45.31;95634.78;5019251;28;19981;-65
2022/07/26 11:13:31;;;;;;;;;;;;;;;16.12;45.40;95639.75;5019494;28;19992;-65
2022/07/26 11:16:00;;;;;;;;;;;;;;;16.56;45.01;95638.34;5005952;28;20163;-66
2022/07/26 11:18:34;;;;;;;;;;;;;;;16.46;45.74;95642.31;5014115;28;20328;-65
2022/07/26 11:21:14;;;;;;;;;;;;;;;16.41;46.40;95644.81;5008498;28;20002;-65
2022/07/26 11:23:50;;;;;;;;;;;;;;;16.65;46.51;95639.72;5008398;28;20476;-65
2022/07/26 11:26:19;;;;;;;;;;;;;;;17.27;44.92;95631.00;5004557;28;19993;-64
2022/07/26 11:28:45;;;;;;;;;;;;;;;17.74;43.65;95628.94;5006115;28;19988;-65
2022/07/26 11:31:10;;;;;;;;;;;;;;;17.65;41.63;95631.88;5007829;28;19972;-65
2022/07/26 11:33:39;;;;;;;;;;;;;;;18.43;40.38;95615.25;5006776;28;20605;-65
2022/07/26 11:36:04;;;;;;;;;;;;;;;19.35;39.47;95618.88;5006536;28;20019;-65
2022/07/26 11:38:52;;;;;;;;;;;;;;;19.26;38.66;95621.06;5009714;28;20010;-64
2022/07/26 11:41:19;;;;;;;;;;;;;;;19.20;38.18;95620.13;5000734;28;20268;-65
2022/07/26 11:43:44;;;;;;;;;;;;;;;19.14;38.21;95618.38;5007227;28;20272;-65
2022/07/26 11:46:09;;;;;;;;;;;;;;;19.24;38.22;95615.91;5010731;28;19972;-65
2022/07/26 11:48:34;;;;;;;;;;;;;;;19.26;38.79;95619.22;5009770;28;19994;-65
2022/07/26 11:51:12;;;;;;;;;;;;;;;18.78;40.42;95615.63;5006180;28;20311;-65
2022/07/26 11:53:38;;;;;;;;;;;;;;;18.98;38.61;95618.00;5008863;28;19985;-65
2022/07/26 11:56:19;;;;;;;;;;;;;;;18.62;38.58;95615.22;5018727;28;19984;-66
2022/07/26 11:58:45;;;;;;;;;;;;;;;18.60;37.96;95619.22;5007937;28;20023;-65
2022/07/26 12:01:11;;;;;;;;;;;;;;;18.59;37.98;95622.97;5007955;28;20003;-65
2022/07/26 12:03:37;;;;;;;;;;;;;;;18.05;38.86;95621.75;4985811;28;19965;-64
2022/07/26 12:06:03;;;;;;;;;;;;;;;17.91;39.78;95616.53;5004840;28;20019;-64
2022/07/26 12:08:39;;;;;;;;;;;;;;;18.16;39.21;95620.19;4996744;28;19994;-65
2022/07/26 12:11:04;;;;;;;;;;;;;;;17.98;39.65;95616.44;4989649;28;20024;-64
2022/07/26 12:13:29;;;;;;;;;;;;;;;18.33;39.10;95620.38;5006016;28;20483;-65
2022/07/26 12:15:54;;;;;;;;;;;;;;;18.95;37.51;95623.88;5011214;28;20034;-65
2022/07/26 12:18:29;;;;;;;;;;;;;;;19.48;36.10;95629.47;5007148;28;20462;-64
2022/07/26 12:20:58;;;;;;;;;;;;;;;19.33;37.10;95625.34;5007309;28;20004;-65
2022/07/26 12:23:23;;;;;;;;;;;;;;;19.05;38.09;95626.81;5011651;28;19978;-66
2022/07/26 12:25:48;;;;;;;;;;;;;;;18.17;39.73;95624.50;5008184;28;20471;-66
2022/07/26 12:28:14;;;;;;;;;;;;;;;18.22;39.89;95623.84;5008261;28;20044;-63
2022/07/26 12:30:39;;;;;;;;;;;;;;;18.16;40.19;95625.56;5011437;28;20514;-65
2022/07/26 12:33:04;;;;;;;;;;;;;;;17.67;41.83;95626.28;5008921;28;19989;-65
2022/07/26 12:35:34;;;;;;;;;;;;;;;17.35;42.51;95632.59;5009513;28;20018;-64
2022/07/26 12:37:59;;;;;;;;;;;;;;;17.77;41.65;95620.38;4992533;28;20002;-64
2022/07/26 12:40:26;;;;;;;;;;;;;;;18.31;40.86;95619.75;5013956;28;20005;-64
2022/07/26 12:42:54;;;;;;;;;;;;;;;18.18;39.89;95626.97;5005960;28;20013;-64
2022/07/26 12:45:20;;;;;;;;;;;;;;;18.49;40.20;95613.50;5008340;28;20558;-65